sensor_id;sensor_type;location;lat;lon;timestamp;P1;durP1;ratioP1;P2;durP2;ratioP2
70367;SDS011;57789;53.868;10.728;2024-03-23T00:54:45;25.80;;;4.13;;
70367;SDS011;57789;53.868;10.728;2024-03-23T00:57:10;27.70;;;6.50;;
70367;SDS011;57789;53.868;10.728;2024-03-23T00:59:36;25.47;;;3.67;;
70367;SDS011;57789;53.868;10.728;2024-03-23T01:02:02;21.90;;;3.57;;
70367;SDS011;57789;53.868;10.728;2024-03-23T01:04:27;26.57;;;4.87;;
70367;SDS011;57789;53.868;10.728;2024-03-23T01:06:53;23.10;;;3.10;;
70367;SDS011;57789;53.868;10.728;2024-03-23T01:09:19;29.20;;;4.00;;
70367;SDS011;57789;53.868;10.728;2024-03-23T01:11:44;24.07;;;4.50;;
70367;SDS011;57789;53.868;10.728;2024-03-23T01:14:10;16.77;;;2.63;;
70367;SDS011;57789;53.868;10.728;2024-03-23T01:16:36;41.13;;;3.50;;
70367;SDS011;57789;53.868;10.728;2024-03-23T01:19:01;34.73;;;5.77;;
70367;SDS011;57789;53.868;10.728;2024-03-23T01:21:27;22.50;;;4.53;;
70367;SDS011;57789;53.868;10.728;2024-03-23T01:23:53;31.10;;;5.60;;
70367;SDS011;57789;53.868;10.728;2024-03-23T01:26:18;27.40;;;4.00;;
70367;SDS011;57789;53.868;10.728;2024-03-23T01:28:44;32.53;;;5.67;;
70367;SDS011;57789;53.868;10.728;2024-03-23T01:31:10;26.67;;;4.23;;
70367;SDS011;57789;53.868;10.728;2024-03-23T01:33:35;40.40;;;4.80;;
70367;SDS011;57789;53.868;10.728;2024-03-23T01:36:01;31.43;;;4.30;;
70367;SDS011;57789;53.868;10.728;2024-03-23T01:38:27;21.77;;;3.40;;
70367;SDS011;57789;53.868;10.728;2024-03-23T01:40:58;38.87;;;4.10;;
70367;SDS011;57789;53.868;10.728;2024-03-23T01:43:24;31.40;;;4.07;;
70367;SDS011;57789;53.868;10.728;2024-03-23T01:45:50;26.83;;;3.50;;
70367;SDS011;57789;53.868;10.728;2024-03-23T01:48:18;25.37;;;4.53;;
70367;SDS011;57789;53.868;10.728;2024-03-23T01:50:45;20.00;;;3.90;;
70367;SDS011;57789;53.868;10.728;2024-03-23T01:53:11;21.27;;;4.20;;
70367;SDS011;57789;53.868;10.728;2024-03-23T01:55:40;23.73;;;4.03;;
70367;SDS011;57789;53.868;10.728;2024-03-23T01:58:05;19.73;;;5.80;;
70367;SDS011;57789;53.868;10.728;2024-03-23T02:00:32;47.77;;;17.27;;
70367;SDS011;57789;53.868;10.728;2024-03-23T02:02:57;47.10;;;5.97;;
70367;SDS011;57789;53.868;10.728;2024-03-23T02:05:23;28.00;;;4.47;;
70367;SDS011;57789;53.868;10.728;2024-03-23T02:07:49;33.13;;;5.57;;
70367;SDS011;57789;53.868;10.728;2024-03-23T02:10:16;28.40;;;4.90;;
70367;SDS011;57789;53.868;10.728;2024-03-23T02:12:41;27.00;;;4.70;;
70367;SDS011;57789;53.868;10.728;2024-03-23T02:15:07;29.97;;;4.43;;
70367;SDS011;57789;53.868;10.728;2024-03-23T02:17:35;25.50;;;4.30;;
70367;SDS011;57789;53.868;10.728;2024-03-23T02:20:04;28.50;;;4.13;;
70367;SDS011;57789;53.868;10.728;2024-03-23T02:22:37;30.33;;;3.50;;
70367;SDS011;57789;53.868;10.728;2024-03-23T02:25:04;19.53;;;3.23;;
70367;SDS011;57789;53.868;10.728;2024-03-23T02:27:30;20.10;;;5.03;;
70367;SDS011;57789;53.868;10.728;2024-03-23T02:29:56;24.80;;;3.60;;
70367;SDS011;57789;53.868;10.728;2024-03-23T02:32:21;30.13;;;4.40;;
70367;SDS011;57789;53.868;10.728;2024-03-23T02:34:47;25.50;;;4.77;;
70367;SDS011;57789;53.868;10.728;2024-03-23T02:37:13;18.00;;;4.50;;
70367;SDS011;57789;53.868;10.728;2024-03-23T02:39:39;21.10;;;3.83;;
70367;SDS011;57789;53.868;10.728;2024-03-23T02:42:04;35.83;;;4.07;;
70367;SDS011;57789;53.868;10.728;2024-03-23T02:44:31;31.13;;;4.70;;
70367;SDS011;57789;53.868;10.728;2024-03-23T02:46:56;18.90;;;2.70;;
70367;SDS011;57789;53.868;10.728;2024-03-23T02:49:22;26.57;;;4.97;;
70367;SDS011;57789;53.868;10.728;2024-03-23T02:51:48;18.50;;;3.50;;
70367;SDS011;57789;53.868;10.728;2024-03-23T02:54:14;18.73;;;3.03;;
70367;SDS011;57789;53.868;10.728;2024-03-23T02:56:40;21.73;;;2.87;;
70367;SDS011;57789;53.868;10.728;2024-03-23T02:59:06;14.90;;;3.00;;
70367;SDS011;57789;53.868;10.728;2024-03-23T03:01:31;26.50;;;4.20;;
70367;SDS011;57789;53.868;10.728;2024-03-23T03:03:57;30.13;;;3.67;;
70367;SDS011;57789;53.868;10.728;2024-03-23T03:06:25;37.27;;;4.53;;
70367;SDS011;57789;53.868;10.728;2024-03-23T03:08:51;24.90;;;3.70;;
70367;SDS011;57789;53.868;10.728;2024-03-23T03:11:17;16.10;;;3.57;;
70367;SDS011;57789;53.868;10.728;2024-03-23T03:13:43;24.03;;;4.90;;
70367;SDS011;57789;53.868;10.728;2024-03-23T03:16:11;23.93;;;3.40;;
70367;SDS011;57789;53.868;10.728;2024-03-23T03:18:38;31.27;;;5.47;;
70367;SDS011;57789;53.868;10.728;2024-03-23T03:21:05;19.07;;;3.40;;
70367;SDS011;57789;53.868;10.728;2024-03-23T03:23:35;23.50;;;4.10;;
70367;SDS011;57789;53.868;10.728;2024-03-23T03:26:04;30.30;;;4.70;;
70367;SDS011;57789;53.868;10.728;2024-03-23T03:28:33;31.20;;;4.47;;
70367;SDS011;57789;53.868;10.728;2024-03-23T03:31:00;30.67;;;4.40;;
70367;SDS011;57789;53.868;10.728;2024-03-23T03:33:29;33.80;;;3.60;;
70367;SDS011;57789;53.868;10.728;2024-03-23T03:35:54;15.67;;;3.53;;
70367;SDS011;57789;53.868;10.728;2024-03-23T03:38:20;23.57;;;3.73;;
70367;SDS011;57789;53.868;10.728;2024-03-23T03:40:46;25.47;;;3.50;;
70367;SDS011;57789;53.868;10.728;2024-03-23T03:43:12;28.67;;;4.37;;
70367;SDS011;57789;53.868;10.728;2024-03-23T03:45:38;23.13;;;4.07;;
70367;SDS011;57789;53.868;10.728;2024-03-23T03:48:04;29.20;;;3.50;;
70367;SDS011;57789;53.868;10.728;2024-03-23T03:50:29;29.73;;;3.87;;
70367;SDS011;57789;53.868;10.728;2024-03-23T03:52:55;21.90;;;4.23;;
70367;SDS011;57789;53.868;10.728;2024-03-23T03:55:21;17.57;;;3.67;;
70367;SDS011;57789;53.868;10.728;2024-03-23T03:57:46;24.73;;;4.10;;
70367;SDS011;57789;53.868;10.728;2024-03-23T04:00:12;27.97;;;3.67;;
70367;SDS011;57789;53.868;10.728;2024-03-23T04:02:38;23.37;;;3.73;;
70367;SDS011;57789;53.868;10.728;2024-03-23T04:05:04;23.63;;;3.10;;
70367;SDS011;57789;53.868;10.728;2024-03-23T04:07:30;30.03;;;4.63;;
70367;SDS011;57789;53.868;10.728;2024-03-23T04:09:56;25.93;;;4.60;;
70367;SDS011;57789;53.868;10.728;2024-03-23T04:12:22;24.03;;;4.43;;
70367;SDS011;57789;53.868;10.728;2024-03-23T04:14:49;15.20;;;3.47;;
70367;SDS011;57789;53.868;10.728;2024-03-23T04:17:14;23.90;;;5.57;;
70367;SDS011;57789;53.868;10.728;2024-03-23T04:19:40;25.70;;;4.77;;
70367;SDS011;57789;53.868;10.728;2024-03-23T04:22:06;20.03;;;3.40;;
70367;SDS011;57789;53.868;10.728;2024-03-23T04:24:31;23.37;;;4.90;;
70367;SDS011;57789;53.868;10.728;2024-03-23T04:26:57;32.90;;;5.90;;
70367;SDS011;57789;53.868;10.728;2024-03-23T04:29:23;27.07;;;4.60;;
70367;SDS011;57789;53.868;10.728;2024-03-23T04:31:48;19.53;;;3.00;;
70367;SDS011;57789;53.868;10.728;2024-03-23T04:34:14;23.50;;;4.67;;
70367;SDS011;57789;53.868;10.728;2024-03-23T04:36:40;25.57;;;4.00;;
70367;SDS011;57789;53.868;10.728;2024-03-23T04:39:05;31.93;;;5.10;;
70367;SDS011;57789;53.868;10.728;2024-03-23T04:41:33;21.80;;;2.87;;
70367;SDS011;57789;53.868;10.728;2024-03-23T04:44:00;25.93;;;3.63;;
70367;SDS011;57789;53.868;10.728;2024-03-23T04:46:26;26.03;;;4.07;;
70367;SDS011;57789;53.868;10.728;2024-03-23T04:48:51;37.93;;;5.13;;
70367;SDS011;57789;53.868;10.728;2024-03-23T04:51:23;21.73;;;4.03;;
70367;SDS011;57789;53.868;10.728;2024-03-23T04:53:49;28.70;;;4.20;;
70367;SDS011;57789;53.868;10.728;2024-03-23T04:56:15;37.73;;;3.80;;
70367;SDS011;57789;53.868;10.728;2024-03-23T04:58:42;24.10;;;4.17;;
70367;SDS011;57789;53.868;10.728;2024-03-23T05:01:08;22.50;;;3.93;;
70367;SDS011;57789;53.868;10.728;2024-03-23T05:03:35;27.97;;;4.67;;
70367;SDS011;57789;53.868;10.728;2024-03-23T05:06:00;22.73;;;4.07;;
70367;SDS011;57789;53.868;10.728;2024-03-23T05:08:29;19.73;;;4.20;;
70367;SDS011;57789;53.868;10.728;2024-03-23T05:10:55;17.37;;;3.80;;
70367;SDS011;57789;53.868;10.728;2024-03-23T05:13:20;21.27;;;4.40;;
70367;SDS011;57789;53.868;10.728;2024-03-23T05:15:53;14.93;;;3.90;;
70367;SDS011;57789;53.868;10.728;2024-03-23T05:18:19;27.13;;;4.20;;
70367;SDS011;57789;53.868;10.728;2024-03-23T05:20:45;33.27;;;4.00;;
70367;SDS011;57789;53.868;10.728;2024-03-23T05:23:10;25.00;;;3.57;;
70367;SDS011;57789;53.868;10.728;2024-03-23T05:25:36;21.00;;;3.70;;
70367;SDS011;57789;53.868;10.728;2024-03-23T05:28:01;24.37;;;4.43;;
70367;SDS011;57789;53.868;10.728;2024-03-23T05:30:27;20.10;;;3.30;;
70367;SDS011;57789;53.868;10.728;2024-03-23T05:32:53;16.40;;;3.97;;
70367;SDS011;57789;53.868;10.728;2024-03-23T05:35:19;26.47;;;4.57;;
70367;SDS011;57789;53.868;10.728;2024-03-23T05:37:45;19.50;;;4.13;;
70367;SDS011;57789;53.868;10.728;2024-03-23T05:40:10;30.43;;;4.63;;
70367;SDS011;57789;53.868;10.728;2024-03-23T05:42:37;23.40;;;5.00;;
70367;SDS011;57789;53.868;10.728;2024-03-23T05:45:04;15.73;;;3.40;;
70367;SDS011;57789;53.868;10.728;2024-03-23T05:47:31;27.80;;;4.70;;
70367;SDS011;57789;53.868;10.728;2024-03-23T05:49:57;27.53;;;4.80;;
70367;SDS011;57789;53.868;10.728;2024-03-23T05:52:23;17.87;;;3.93;;
70367;SDS011;57789;53.868;10.728;2024-03-23T05:54:50;21.73;;;3.70;;
70367;SDS011;57789;53.868;10.728;2024-03-23T05:57:16;22.93;;;4.53;;
70367;SDS011;57789;53.868;10.728;2024-03-23T05:59:41;26.20;;;3.73;;
70367;SDS011;57789;53.868;10.728;2024-03-23T06:02:08;19.07;;;3.70;;
70367;SDS011;57789;53.868;10.728;2024-03-23T06:04:35;37.53;;;5.30;;
70367;SDS011;57789;53.868;10.728;2024-03-23T06:07:01;21.30;;;3.80;;
70367;SDS011;57789;53.868;10.728;2024-03-23T06:09:27;30.00;;;4.70;;
70367;SDS011;57789;53.868;10.728;2024-03-23T06:11:52;27.13;;;4.57;;
70367;SDS011;57789;53.868;10.728;2024-03-23T06:14:18;14.90;;;4.03;;
70367;SDS011;57789;53.868;10.728;2024-03-23T06:16:43;27.20;;;4.57;;
70367;SDS011;57789;53.868;10.728;2024-03-23T06:19:09;30.47;;;3.87;;
70367;SDS011;57789;53.868;10.728;2024-03-23T06:21:35;17.60;;;4.23;;
70367;SDS011;57789;53.868;10.728;2024-03-23T06:24:01;20.33;;;3.27;;
70367;SDS011;57789;53.868;10.728;2024-03-23T06:26:26;33.50;;;4.97;;
70367;SDS011;57789;53.868;10.728;2024-03-23T06:28:52;20.43;;;4.17;;
70367;SDS011;57789;53.868;10.728;2024-03-23T06:31:17;19.13;;;4.90;;
70367;SDS011;57789;53.868;10.728;2024-03-23T06:33:43;19.93;;;4.07;;
70367;SDS011;57789;53.868;10.728;2024-03-23T06:36:09;21.43;;;3.63;;
70367;SDS011;57789;53.868;10.728;2024-03-23T06:38:36;22.23;;;3.23;;
70367;SDS011;57789;53.868;10.728;2024-03-23T06:41:03;81.00;;;28.50;;
70367;SDS011;57789;53.868;10.728;2024-03-23T06:43:31;18.73;;;5.17;;
70367;SDS011;57789;53.868;10.728;2024-03-23T06:45:57;18.80;;;5.70;;
70367;SDS011;57789;53.868;10.728;2024-03-23T06:48:23;24.10;;;4.23;;
70367;SDS011;57789;53.868;10.728;2024-03-23T06:50:49;23.87;;;7.03;;
70367;SDS011;57789;53.868;10.728;2024-03-23T06:53:15;23.17;;;3.67;;
70367;SDS011;57789;53.868;10.728;2024-03-23T06:55:41;28.40;;;4.37;;
70367;SDS011;57789;53.868;10.728;2024-03-23T06:58:09;27.33;;;7.67;;
70367;SDS011;57789;53.868;10.728;2024-03-23T07:00:35;23.30;;;4.90;;
70367;SDS011;57789;53.868;10.728;2024-03-23T07:03:00;33.50;;;8.87;;
70367;SDS011;57789;53.868;10.728;2024-03-23T07:05:26;28.87;;;5.20;;
70367;SDS011;57789;53.868;10.728;2024-03-23T07:07:52;37.17;;;5.63;;
70367;SDS011;57789;53.868;10.728;2024-03-23T07:10:17;43.03;;;5.67;;
70367;SDS011;57789;53.868;10.728;2024-03-23T07:12:43;15.03;;;3.70;;
70367;SDS011;57789;53.868;10.728;2024-03-23T07:15:09;22.90;;;4.40;;
70367;SDS011;57789;53.868;10.728;2024-03-23T07:17:35;25.00;;;5.03;;
70367;SDS011;57789;53.868;10.728;2024-03-23T07:20:01;37.67;;;11.20;;
70367;SDS011;57789;53.868;10.728;2024-03-23T07:22:30;25.43;;;7.60;;
70367;SDS011;57789;53.868;10.728;2024-03-23T07:24:56;28.33;;;3.37;;
70367;SDS011;57789;53.868;10.728;2024-03-23T07:27:22;24.60;;;5.13;;
70367;SDS011;57789;53.868;10.728;2024-03-23T07:29:49;35.93;;;9.33;;
70367;SDS011;57789;53.868;10.728;2024-03-23T07:32:14;28.53;;;4.33;;
70367;SDS011;57789;53.868;10.728;2024-03-23T07:34:40;27.93;;;4.40;;
70367;SDS011;57789;53.868;10.728;2024-03-23T07:37:08;22.23;;;4.10;;
70367;SDS011;57789;53.868;10.728;2024-03-23T07:39:34;17.30;;;4.30;;
70367;SDS011;57789;53.868;10.728;2024-03-23T07:41:59;22.93;;;4.40;;
70367;SDS011;57789;53.868;10.728;2024-03-23T07:44:25;18.70;;;4.60;;
70367;SDS011;57789;53.868;10.728;2024-03-23T07:46:51;21.93;;;4.67;;
70367;SDS011;57789;53.868;10.728;2024-03-23T07:49:16;24.07;;;3.87;;
70367;SDS011;57789;53.868;10.728;2024-03-23T07:51:43;24.73;;;6.10;;
70367;SDS011;57789;53.868;10.728;2024-03-23T07:54:09;22.90;;;3.20;;
70367;SDS011;57789;53.868;10.728;2024-03-23T07:56:35;32.37;;;4.77;;
70367;SDS011;57789;53.868;10.728;2024-03-23T07:59:01;29.77;;;7.83;;
70367;SDS011;57789;53.868;10.728;2024-03-23T08:01:28;25.00;;;4.17;;
70367;SDS011;57789;53.868;10.728;2024-03-23T08:03:54;19.17;;;3.47;;
70367;SDS011;57789;53.868;10.728;2024-03-23T08:06:20;29.47;;;3.23;;
70367;SDS011;57789;53.868;10.728;2024-03-23T08:08:48;25.37;;;6.77;;
70367;SDS011;57789;53.868;10.728;2024-03-23T08:11:18;22.90;;;4.00;;
70367;SDS011;57789;53.868;10.728;2024-03-23T08:13:44;35.80;;;4.60;;
70367;SDS011;57789;53.868;10.728;2024-03-23T08:16:11;24.07;;;3.27;;
70367;SDS011;57789;53.868;10.728;2024-03-23T08:18:39;23.17;;;4.60;;
70367;SDS011;57789;53.868;10.728;2024-03-23T08:21:05;24.67;;;4.20;;
70367;SDS011;57789;53.868;10.728;2024-03-23T08:23:32;15.93;;;3.70;;
70367;SDS011;57789;53.868;10.728;2024-03-23T08:26:02;23.33;;;3.77;;
70367;SDS011;57789;53.868;10.728;2024-03-23T08:28:34;32.23;;;5.30;;
70367;SDS011;57789;53.868;10.728;2024-03-23T08:31:01;31.53;;;4.30;;
70367;SDS011;57789;53.868;10.728;2024-03-23T08:33:37;30.60;;;3.30;;
70367;SDS011;57789;53.868;10.728;2024-03-23T08:36:07;23.73;;;5.07;;
70367;SDS011;57789;53.868;10.728;2024-03-23T08:38:37;15.40;;;3.00;;
70367;SDS011;57789;53.868;10.728;2024-03-23T08:43:33;15.63;;;3.17;;
70367;SDS011;57789;53.868;10.728;2024-03-23T08:46:06;17.90;;;5.83;;
70367;SDS011;57789;53.868;10.728;2024-03-23T08:48:43;19.70;;;3.87;;
70367;SDS011;57789;53.868;10.728;2024-03-23T08:51:11;15.47;;;3.47;;
70367;SDS011;57789;53.868;10.728;2024-03-23T08:53:38;18.60;;;3.03;;
70367;SDS011;57789;53.868;10.728;2024-03-23T08:56:05;35.17;;;4.20;;
70367;SDS011;57789;53.868;10.728;2024-03-23T08:58:32;15.60;;;4.00;;
70367;SDS011;57789;53.868;10.728;2024-03-23T09:01:06;18.83;;;3.57;;
70367;SDS011;57789;53.868;10.728;2024-03-23T09:03:39;19.50;;;3.73;;
70367;SDS011;57789;53.868;10.728;2024-03-23T09:06:12;14.60;;;2.73;;
70367;SDS011;57789;53.868;10.728;2024-03-23T09:08:39;30.30;;;4.30;;
70367;SDS011;57789;53.868;10.728;2024-03-23T09:11:06;16.63;;;4.27;;
70367;SDS011;57789;53.868;10.728;2024-03-23T09:13:34;21.90;;;4.50;;
70367;SDS011;57789;53.868;10.728;2024-03-23T09:16:02;22.40;;;4.60;;
70367;SDS011;57789;53.868;10.728;2024-03-23T09:18:30;23.90;;;5.37;;
70367;SDS011;57789;53.868;10.728;2024-03-23T09:20:58;18.20;;;4.00;;
70367;SDS011;57789;53.868;10.728;2024-03-23T09:23:24;25.13;;;3.37;;
70367;SDS011;57789;53.868;10.728;2024-03-23T09:25:50;17.63;;;2.63;;
70367;SDS011;57789;53.868;10.728;2024-03-23T09:28:16;17.33;;;3.67;;
70367;SDS011;57789;53.868;10.728;2024-03-23T09:30:43;22.37;;;5.23;;
70367;SDS011;57789;53.868;10.728;2024-03-23T09:33:09;19.97;;;3.80;;
70367;SDS011;57789;53.868;10.728;2024-03-23T09:35:39;23.53;;;4.37;;
70367;SDS011;57789;53.868;10.728;2024-03-23T09:38:06;26.93;;;6.23;;
70367;SDS011;57789;53.868;10.728;2024-03-23T09:40:34;21.17;;;2.97;;
70367;SDS011;57789;53.868;10.728;2024-03-23T09:43:06;19.27;;;3.40;;
70367;SDS011;57789;53.868;10.728;2024-03-23T09:45:32;16.23;;;3.03;;
70367;SDS011;57789;53.868;10.728;2024-03-23T09:48:00;7.67;;;2.10;;
70367;SDS011;57789;53.868;10.728;2024-03-23T09:50:26;14.70;;;2.70;;
70367;SDS011;57789;53.868;10.728;2024-03-23T09:52:52;12.33;;;1.87;;
70367;SDS011;57789;53.868;10.728;2024-03-23T09:55:18;18.93;;;2.30;;
70367;SDS011;57789;53.868;10.728;2024-03-23T09:57:44;18.60;;;2.93;;
70367;SDS011;57789;53.868;10.728;2024-03-23T10:00:09;9.60;;;2.33;;
70367;SDS011;57789;53.868;10.728;2024-03-23T10:02:37;11.93;;;1.80;;
70367;SDS011;57789;53.868;10.728;2024-03-23T10:05:03;11.93;;;1.93;;
70367;SDS011;57789;53.868;10.728;2024-03-23T10:07:29;14.10;;;2.43;;
70367;SDS011;57789;53.868;10.728;2024-03-23T10:09:55;11.30;;;2.80;;
70367;SDS011;57789;53.868;10.728;2024-03-23T10:12:22;16.50;;;3.53;;
70367;SDS011;57789;53.868;10.728;2024-03-23T10:14:49;7.87;;;1.90;;
70367;SDS011;57789;53.868;10.728;2024-03-23T10:17:15;13.53;;;2.23;;
70367;SDS011;57789;53.868;10.728;2024-03-23T10:19:45;18.47;;;3.00;;
70367;SDS011;57789;53.868;10.728;2024-03-23T10:22:19;25.70;;;3.10;;
70367;SDS011;57789;53.868;10.728;2024-03-23T10:24:46;17.50;;;2.63;;
70367;SDS011;57789;53.868;10.728;2024-03-23T10:27:16;8.00;;;1.50;;
70367;SDS011;57789;53.868;10.728;2024-03-23T10:29:45;15.50;;;3.23;;
70367;SDS011;57789;53.868;10.728;2024-03-23T10:32:12;11.10;;;3.23;;
70367;SDS011;57789;53.868;10.728;2024-03-23T10:34:39;12.77;;;2.30;;
70367;SDS011;57789;53.868;10.728;2024-03-23T10:37:05;10.43;;;2.13;;
70367;SDS011;57789;53.868;10.728;2024-03-23T10:39:32;12.70;;;2.70;;
70367;SDS011;57789;53.868;10.728;2024-03-23T10:42:04;24.07;;;3.10;;
70367;SDS011;57789;53.868;10.728;2024-03-23T10:44:35;16.50;;;3.67;;
70367;SDS011;57789;53.868;10.728;2024-03-23T10:47:03;12.40;;;2.17;;
70367;SDS011;57789;53.868;10.728;2024-03-23T10:49:30;12.60;;;2.40;;
70367;SDS011;57789;53.868;10.728;2024-03-23T10:51:58;17.00;;;3.13;;
70367;SDS011;57789;53.868;10.728;2024-03-23T10:54:25;10.37;;;1.80;;
70367;SDS011;57789;53.868;10.728;2024-03-23T10:59:32;14.37;;;2.30;;
70367;SDS011;57789;53.868;10.728;2024-03-23T11:02:01;5.27;;;1.60;;
70367;SDS011;57789;53.868;10.728;2024-03-23T11:04:30;6.47;;;2.10;;
70367;SDS011;57789;53.868;10.728;2024-03-23T11:06:58;10.67;;;2.03;;
70367;SDS011;57789;53.868;10.728;2024-03-23T11:14:53;6.70;;;1.37;;
70367;SDS011;57789;53.868;10.728;2024-03-23T11:20:00;10.10;;;1.20;;
70367;SDS011;57789;53.868;10.728;2024-03-23T11:22:45;5.27;;;1.23;;
70367;SDS011;57789;53.868;10.728;2024-03-23T11:27:47;5.70;;;1.07;;
70367;SDS011;57789;53.868;10.728;2024-03-23T11:32:47;8.37;;;2.77;;
70367;SDS011;57789;53.868;10.728;2024-03-23T11:35:33;8.00;;;1.87;;
70367;SDS011;57789;53.868;10.728;2024-03-23T11:38:15;9.40;;;1.70;;
70367;SDS011;57789;53.868;10.728;2024-03-23T11:40:46;6.07;;;1.20;;
70367;SDS011;57789;53.868;10.728;2024-03-23T11:43:14;8.43;;;1.70;;
70367;SDS011;57789;53.868;10.728;2024-03-23T11:45:47;6.70;;;1.30;;
70367;SDS011;57789;53.868;10.728;2024-03-23T11:48:18;4.03;;;1.00;;
70367;SDS011;57789;53.868;10.728;2024-03-23T11:50:48;5.00;;;1.43;;
70367;SDS011;57789;53.868;10.728;2024-03-23T11:55:45;10.07;;;1.63;;
70367;SDS011;57789;53.868;10.728;2024-03-23T11:58:23;11.47;;;2.17;;
70367;SDS011;57789;53.868;10.728;2024-03-23T12:00:58;5.17;;;1.20;;
70367;SDS011;57789;53.868;10.728;2024-03-23T12:03:29;9.13;;;1.93;;
70367;SDS011;57789;53.868;10.728;2024-03-23T12:05:55;6.00;;;1.47;;
70367;SDS011;57789;53.868;10.728;2024-03-23T12:10:50;12.97;;;2.40;;
70367;SDS011;57789;53.868;10.728;2024-03-23T12:13:29;7.40;;;1.53;;
70367;SDS011;57789;53.868;10.728;2024-03-23T12:15:56;5.80;;;1.23;;
70367;SDS011;57789;53.868;10.728;2024-03-23T12:18:34;8.97;;;1.57;;
70367;SDS011;57789;53.868;10.728;2024-03-23T12:21:00;4.33;;;1.40;;
70367;SDS011;57789;53.868;10.728;2024-03-23T12:23:26;2.70;;;0.70;;
70367;SDS011;57789;53.868;10.728;2024-03-23T12:25:51;1.77;;;0.70;;
70367;SDS011;57789;53.868;10.728;2024-03-23T12:28:17;1.90;;;0.63;;
70367;SDS011;57789;53.868;10.728;2024-03-23T12:30:42;2.77;;;0.67;;
70367;SDS011;57789;53.868;10.728;2024-03-23T12:33:08;2.53;;;0.60;;
70367;SDS011;57789;53.868;10.728;2024-03-23T12:35:34;3.30;;;0.70;;
70367;SDS011;57789;53.868;10.728;2024-03-23T12:37:59;2.67;;;1.17;;
70367;SDS011;57789;53.868;10.728;2024-03-23T12:40:25;3.10;;;1.07;;
70367;SDS011;57789;53.868;10.728;2024-03-23T12:42:52;8.93;;;1.20;;
70367;SDS011;57789;53.868;10.728;2024-03-23T12:45:19;10.63;;;1.60;;
70367;SDS011;57789;53.868;10.728;2024-03-23T12:47:44;5.37;;;1.50;;
70367;SDS011;57789;53.868;10.728;2024-03-23T12:50:10;5.30;;;1.40;;
70367;SDS011;57789;53.868;10.728;2024-03-23T12:52:36;7.83;;;2.13;;
70367;SDS011;57789;53.868;10.728;2024-03-23T12:55:02;5.57;;;1.97;;
70367;SDS011;57789;53.868;10.728;2024-03-23T12:57:30;7.40;;;1.13;;
70367;SDS011;57789;53.868;10.728;2024-03-23T12:59:56;8.83;;;1.00;;
70367;SDS011;57789;53.868;10.728;2024-03-23T13:02:22;1.77;;;0.70;;
70367;SDS011;57789;53.868;10.728;2024-03-23T13:04:52;2.10;;;0.73;;
70367;SDS011;57789;53.868;10.728;2024-03-23T13:07:19;3.83;;;0.90;;
70367;SDS011;57789;53.868;10.728;2024-03-23T13:09:45;2.53;;;0.80;;
70367;SDS011;57789;53.868;10.728;2024-03-23T13:12:11;2.50;;;1.23;;
70367;SDS011;57789;53.868;10.728;2024-03-23T13:14:37;2.13;;;0.57;;
70367;SDS011;57789;53.868;10.728;2024-03-23T13:17:04;1.40;;;0.83;;
70367;SDS011;57789;53.868;10.728;2024-03-23T13:19:30;2.87;;;1.13;;
70367;SDS011;57789;53.868;10.728;2024-03-23T13:21:59;14.63;;;1.80;;
70367;SDS011;57789;53.868;10.728;2024-03-23T13:24:26;6.83;;;1.03;;
70367;SDS011;57789;53.868;10.728;2024-03-23T13:26:53;1.77;;;0.80;;
70367;SDS011;57789;53.868;10.728;2024-03-23T13:29:19;1.10;;;0.60;;
70367;SDS011;57789;53.868;10.728;2024-03-23T13:31:45;2.50;;;0.80;;
70367;SDS011;57789;53.868;10.728;2024-03-23T13:34:12;3.53;;;0.80;;
70367;SDS011;57789;53.868;10.728;2024-03-23T13:36:41;2.23;;;0.70;;
70367;SDS011;57789;53.868;10.728;2024-03-23T13:39:10;4.67;;;0.93;;
70367;SDS011;57789;53.868;10.728;2024-03-23T13:41:43;1.30;;;0.70;;
70367;SDS011;57789;53.868;10.728;2024-03-23T13:44:10;1.17;;;0.70;;
70367;SDS011;57789;53.868;10.728;2024-03-23T13:46:36;3.40;;;0.83;;
70367;SDS011;57789;53.868;10.728;2024-03-23T13:49:03;4.30;;;0.87;;
70367;SDS011;57789;53.868;10.728;2024-03-23T13:51:29;5.00;;;1.10;;
70367;SDS011;57789;53.868;10.728;2024-03-23T13:53:55;6.40;;;0.90;;
70367;SDS011;57789;53.868;10.728;2024-03-23T13:56:26;2.83;;;1.13;;
70367;SDS011;57789;53.868;10.728;2024-03-23T13:58:57;2.27;;;0.80;;
70367;SDS011;57789;53.868;10.728;2024-03-23T14:01:23;6.00;;;1.20;;
70367;SDS011;57789;53.868;10.728;2024-03-23T14:03:49;4.63;;;1.20;;
70367;SDS011;57789;53.868;10.728;2024-03-23T14:06:15;4.90;;;1.20;;
70367;SDS011;57789;53.868;10.728;2024-03-23T14:08:40;5.33;;;1.07;;
70367;SDS011;57789;53.868;10.728;2024-03-23T14:11:07;4.43;;;1.20;;
70367;SDS011;57789;53.868;10.728;2024-03-23T14:13:35;5.57;;;1.00;;
70367;SDS011;57789;53.868;10.728;2024-03-23T14:16:01;2.80;;;1.20;;
70367;SDS011;57789;53.868;10.728;2024-03-23T14:18:27;7.20;;;1.20;;
70367;SDS011;57789;53.868;10.728;2024-03-23T14:20:56;8.37;;;1.53;;
70367;SDS011;57789;53.868;10.728;2024-03-23T14:23:24;5.57;;;1.10;;
70367;SDS011;57789;53.868;10.728;2024-03-23T14:25:54;4.00;;;1.00;;
70367;SDS011;57789;53.868;10.728;2024-03-23T14:28:21;6.00;;;1.00;;
70367;SDS011;57789;53.868;10.728;2024-03-23T14:30:48;8.30;;;2.70;;
70367;SDS011;57789;53.868;10.728;2024-03-23T14:33:14;4.60;;;0.90;;
70367;SDS011;57789;53.868;10.728;2024-03-23T14:35:41;7.30;;;1.27;;
70367;SDS011;57789;53.868;10.728;2024-03-23T14:38:06;1.80;;;0.80;;
70367;SDS011;57789;53.868;10.728;2024-03-23T14:40:33;5.27;;;0.90;;
70367;SDS011;57789;53.868;10.728;2024-03-23T14:42:59;4.83;;;0.87;;
70367;SDS011;57789;53.868;10.728;2024-03-23T14:45:24;5.90;;;0.83;;
70367;SDS011;57789;53.868;10.728;2024-03-23T14:47:50;6.13;;;1.17;;
70367;SDS011;57789;53.868;10.728;2024-03-23T14:50:17;3.63;;;1.00;;
70367;SDS011;57789;53.868;10.728;2024-03-23T14:52:46;4.40;;;1.00;;
70367;SDS011;57789;53.868;10.728;2024-03-23T14:55:12;11.03;;;1.20;;
70367;SDS011;57789;53.868;10.728;2024-03-23T14:57:38;1.73;;;0.93;;
70367;SDS011;57789;53.868;10.728;2024-03-23T15:00:08;6.13;;;1.03;;
70367;SDS011;57789;53.868;10.728;2024-03-23T15:02:37;5.47;;;0.90;;
70367;SDS011;57789;53.868;10.728;2024-03-23T15:05:03;7.00;;;1.53;;
70367;SDS011;57789;53.868;10.728;2024-03-23T15:07:32;6.80;;;1.13;;
70367;SDS011;57789;53.868;10.728;2024-03-23T15:09:58;2.43;;;1.10;;
70367;SDS011;57789;53.868;10.728;2024-03-23T15:12:24;9.77;;;1.00;;
70367;SDS011;57789;53.868;10.728;2024-03-23T15:14:50;5.87;;;1.07;;
70367;SDS011;57789;53.868;10.728;2024-03-23T15:17:16;3.00;;;0.90;;
70367;SDS011;57789;53.868;10.728;2024-03-23T15:19:44;4.77;;;0.77;;
70367;SDS011;57789;53.868;10.728;2024-03-23T15:22:09;10.17;;;1.30;;
70367;SDS011;57789;53.868;10.728;2024-03-23T15:24:35;1.87;;;0.80;;
70367;SDS011;57789;53.868;10.728;2024-03-23T15:27:02;5.17;;;1.00;;
70367;SDS011;57789;53.868;10.728;2024-03-23T15:29:28;4.20;;;0.90;;
70367;SDS011;57789;53.868;10.728;2024-03-23T15:31:55;3.90;;;1.10;;
70367;SDS011;57789;53.868;10.728;2024-03-23T15:34:24;3.70;;;1.10;;
70367;SDS011;57789;53.868;10.728;2024-03-23T15:36:50;3.83;;;1.10;;
70367;SDS011;57789;53.868;10.728;2024-03-23T15:39:16;2.37;;;0.90;;
70367;SDS011;57789;53.868;10.728;2024-03-23T15:41:45;4.03;;;1.00;;